sensor_id;sensor_type;location;lat;lon;timestamp;temperature;humidity
40758;DHT22;26462;47.384;19.218;2022-12-10T04:38:00;6.00;99.90
40758;DHT22;26462;47.384;19.218;2022-12-10T04:40:29;6.00;99.90
40758;DHT22;26462;47.384;19.218;2022-12-10T04:42:56;6.00;99.90
40758;DHT22;26462;47.384;19.218;2022-12-10T04:45:24;6.00;99.90
40758;DHT22;26462;47.384;19.218;2022-12-10T04:47:51;5.90;99.90
40758;DHT22;26462;47.384;19.218;2022-12-10T04:50:21;5.90;99.90
40758;DHT22;26462;47.384;19.218;2022-12-10T04:52:51;5.90;99.90
40758;DHT22;26462;47.384;19.218;2022-12-10T04:55:18;5.90;99.90
40758;DHT22;26462;47.384;19.218;2022-12-10T04:57:51;5.90;99.90
40758;DHT22;26462;47.384;19.218;2022-12-10T05:00:19;5.80;99.90
40758;DHT22;26462;47.384;19.218;2022-12-10T05:02:48;5.90;99.90
40758;DHT22;26462;47.384;19.218;2022-12-10T05:05:16;5.90;99.90
40758;DHT22;26462;47.384;19.218;2022-12-10T05:07:43;5.90;99.90
40758;DHT22;26462;47.384;19.218;2022-12-10T05:10:10;5.90;99.90
40758;DHT22;26462;47.384;19.218;2022-12-10T05:12:38;5.80;99.90
40758;DHT22;26462;47.384;19.218;2022-12-10T05:15:07;5.80;99.90
40758;DHT22;26462;47.384;19.218;2022-12-10T05:17:36;5.80;99.90
40758;DHT22;26462;47.384;19.218;2022-12-10T05:20:05;5.70;99.90
40758;DHT22;26462;47.384;19.218;2022-12-10T05:22:35;5.70;99.90
40758;DHT22;26462;47.384;19.218;2022-12-10T05:25:22;5.70;99.90
40758;DHT22;26462;47.384;19.218;2022-12-10T05:27:51;5.70;99.90
40758;DHT22;26462;47.384;19.218;2022-12-10T05:30:19;5.70;99.90
40758;DHT22;26462;47.384;19.218;2022-12-10T05:32:47;5.70;99.90
40758;DHT22;26462;47.384;19.218;2022-12-10T05:35:14;5.70;99.90
40758;DHT22;26462;47.384;19.218;2022-12-10T05:37:42;5.70;99.90
40758;DHT22;26462;47.384;19.218;2022-12-10T05:40:14;5.70;99.90
40758;DHT22;26462;47.384;19.218;2022-12-10T05:42:43;5.70;99.90
40758;DHT22;26462;47.384;19.218;2022-12-10T05:45:11;5.60;99.90
40758;DHT22;26462;47.384;19.218;2022-12-10T05:47:39;5.70;99.90
40758;DHT22;26462;47.384;19.218;2022-12-10T05:50:07;5.70;99.90
40758;DHT22;26462;47.384;19.218;2022-12-10T05:52:35;5.70;99.90
40758;DHT22;26462;47.384;19.218;2022-12-10T05:55:02;5.70;99.90
40758;DHT22;26462;47.384;19.218;2022-12-10T05:57:29;5.70;99.90
40758;DHT22;26462;47.384;19.218;2022-12-10T05:59:57;5.60;99.90
40758;DHT22;26462;47.384;19.218;2022-12-10T06:02:25;5.70;99.90
40758;DHT22;26462;47.384;19.218;2022-12-10T06:04:53;5.70;99.90
40758;DHT22;26462;47.384;19.218;2022-12-10T06:07:23;5.70;99.90
40758;DHT22;26462;47.384;19.218;2022-12-10T06:09:52;5.70;99.90
40758;DHT22;26462;47.384;19.218;2022-12-10T06:12:20;5.70;99.90
40758;DHT22;26462;47.384;19.218;2022-12-10T06:14:48;5.60;99.90
40758;DHT22;26462;47.384;19.218;2022-12-10T06:17:15;5.70;99.90
40758;DHT22;26462;47.384;19.218;2022-12-10T06:19:43;5.70;99.90
40758;DHT22;26462;47.384;19.218;2022-12-10T06:22:10;5.60;99.90
40758;DHT22;26462;47.384;19.218;2022-12-10T06:24:38;5.70;99.90
40758;DHT22;26462;47.384;19.218;2022-12-10T06:27:05;5.60;99.90
40758;DHT22;26462;47.384;19.218;2022-12-10T06:29:32;6.20;99.90
40758;DHT22;26462;47.384;19.218;2022-12-10T06:32:00;5.60;99.90
40758;DHT22;26462;47.384;19.218;2022-12-10T06:34:27;5.60;99.90
40758;DHT22;26462;47.384;19.218;2022-12-10T06:36:55;5.60;99.90
40758;DHT22;26462;47.384;19.218;2022-12-10T06:39:23;5.60;99.90
40758;DHT22;26462;47.384;19.218;2022-12-10T06:41:50;5.60;99.90
40758;DHT22;26462;47.384;19.218;2022-12-10T06:44:24;4.80;99.90
40758;DHT22;26462;47.384;19.218;2022-12-10T06:46:52;5.60;99.90
40758;DHT22;26462;47.384;19.218;2022-12-10T06:49:19;4.40;99.90
40758;DHT22;26462;47.384;19.218;2022-12-10T06:51:47;5.60;99.90
40758;DHT22;26462;47.384;19.218;2022-12-10T06:54:15;5.60;99.90
40758;DHT22;26462;47.384;19.218;2022-12-10T06:56:43;5.50;99.90
40758;DHT22;26462;47.384;19.218;2022-12-10T06:59:10;5.50;99.90
40758;DHT22;26462;47.384;19.218;2022-12-10T08:39:15;5.50;99.90
40758;DHT22;26462;47.384;19.218;2022-12-10T08:46:07;5.50;99.90
40758;DHT22;26462;47.384;19.218;2022-12-10T13:55:08;5.20;99.90
40758;DHT22;26462;47.384;19.218;2022-12-10T13:58:17;5.30;99.90
40758;DHT22;26462;47.384;19.218;2022-12-10T14:01:05;5.30;99.90
40758;DHT22;26462;47.384;19.218;2022-12-10T14:04:15;5.30;99.90
40758;DHT22;26462;47.384;19.218;2022-12-10T14:06:45;4.90;99.90
40758;DHT22;26462;47.384;19.218;2022-12-10T14:09:19;5.10;99.90
40758;DHT22;26462;47.384;19.218;2022-12-10T14:14:38;5.00;99.90
40758;DHT22;26462;47.384;19.218;2022-12-10T14:17:14;5.20;99.90
40758;DHT22;26462;47.384;19.218;2022-12-10T14:19:49;5.70;99.90
40758;DHT22;26462;47.384;19.218;2022-12-10T14:22:29;5.20;99.90
40758;DHT22;26462;47.384;19.218;2022-12-10T14:25:04;5.10;99.90
40758;DHT22;26462;47.384;19.218;2022-12-10T14:27:35;5.20;99.90
40758;DHT22;26462;47.384;19.218;2022-12-10T14:30:18;5.10;99.90
40758;DHT22;26462;47.384;19.218;2022-12-10T14:32:46;5.00;99.90
40758;DHT22;26462;47.384;19.218;2022-12-10T14:35:21;5.20;99.90
40758;DHT22;26462;47.384;19.218;2022-12-10T14:37:53;5.20;99.90
40758;DHT22;26462;47.384;19.218;2022-12-10T14:42:59;5.00;99.90
40758;DHT22;26462;47.384;19.218;2022-12-10T14:45:40;5.10;99.90
40758;DHT22;26462;47.384;19.218;2022-12-10T14:48:18;4.80;99.90
40758;DHT22;26462;47.384;19.218;2022-12-10T14:50:46;4.40;99.90
40758;DHT22;26462;47.384;19.218;2022-12-10T14:53:17;5.00;99.90
40758;DHT22;26462;47.384;19.218;2022-12-10T14:55:56;5.00;99.90
40758;DHT22;26462;47.384;19.218;2022-12-10T14:58:40;4.90;99.90
40758;DHT22;26462;47.384;19.218;2022-12-10T15:01:15;5.00;99.90
40758;DHT22;26462;47.384;19.218;2022-12-10T15:03:45;4.80;99.90
40758;DHT22;26462;47.384;19.218;2022-12-10T15:06:21;5.00;99.90
40758;DHT22;26462;47.384;19.218;2022-12-10T15:08:49;4.90;99.90
40758;DHT22;26462;47.384;19.218;2022-12-10T15:11:20;5.20;99.90
40758;DHT22;26462;47.384;19.218;2022-12-10T15:13:51;4.80;99.90
40758;DHT22;26462;47.384;19.218;2022-12-10T15:16:30;4.80;99.90
40758;DHT22;26462;47.384;19.218;2022-12-10T15:22:03;4.70;99.90
40758;DHT22;26462;47.384;19.218;2022-12-10T15:24:41;4.80;99.90
40758;DHT22;26462;47.384;19.218;2022-12-10T15:27:20;4.80;99.90
40758;DHT22;26462;47.384;19.218;2022-12-10T15:29:50;3.80;99.90
40758;DHT22;26462;47.384;19.218;2022-12-10T15:32:25;4.70;99.90
40758;DHT22;26462;47.384;19.218;2022-12-10T15:35:03;4.80;99.90
40758;DHT22;26462;47.384;19.218;2022-12-10T15:37:34;4.90;99.90
40758;DHT22;26462;47.384;19.218;2022-12-10T15:40:26;4.80;99.90
40758;DHT22;26462;47.384;19.218;2022-12-10T15:45:52;4.80;99.90
40758;DHT22;26462;47.384;19.218;2022-12-10T15:48:28;4.80;99.90
40758;DHT22;26462;47.384;19.218;2022-12-10T15:50:56;4.60;99.90
40758;DHT22;26462;47.384;19.218;2022-12-10T15:53:28;3.80;99.90
40758;DHT22;26462;47.384;19.218;2022-12-10T15:56:02;4.50;99.90
40758;DHT22;26462;47.384;19.218;2022-12-10T16:01:59;4.80;99.90
40758;DHT22;26462;47.384;19.218;2022-12-10T16:04:28;4.90;99.90
40758;DHT22;26462;47.384;19.218;2022-12-10T16:06:56;4.70;99.90
40758;DHT22;26462;47.384;19.218;2022-12-10T16:09:24;4.70;99.90
40758;DHT22;26462;47.384;19.218;2022-12-10T16:11:56;4.50;99.90
40758;DHT22;26462;47.384;19.218;2022-12-10T16:14:24;4.60;99.90
40758;DHT22;26462;47.384;19.218;2022-12-10T16:16:55;4.70;99.90
40758;DHT22;26462;47.384;19.218;2022-12-10T16:19:23;4.70;99.90
40758;DHT22;26462;47.384;19.218;2022-12-10T16:21:52;4.20;99.90
40758;DHT22;26462;47.384;19.218;2022-12-10T16:24:20;4.50;99.90
40758;DHT22;26462;47.384;19.218;2022-12-10T16:26:51;4.70;99.90
40758;DHT22;26462;47.384;19.218;2022-12-10T16:29:20;4.70;99.90
40758;DHT22;26462;47.384;19.218;2022-12-10T16:31:49;4.70;99.90
40758;DHT22;26462;47.384;19.218;2022-12-10T16:34:18;4.70;99.90
40758;DHT22;26462;47.384;19.218;2022-12-10T16:36:47;4.70;99.90
40758;DHT22;26462;47.384;19.218;2022-12-10T16:39:17;3.40;99.90
40758;DHT22;26462;47.384;19.218;2022-12-10T16:41:51;4.80;99.90
40758;DHT22;26462;47.384;19.218;2022-12-10T16:44:21;4.80;99.90
40758;DHT22;26462;47.384;19.218;2022-12-10T16:46:49;4.80;99.90
40758;DHT22;26462;47.384;19.218;2022-12-10T16:49:18;4.80;99.90
40758;DHT22;26462;47.384;19.218;2022-12-10T16:51:46;4.10;99.90
40758;DHT22;26462;47.384;19.218;2022-12-10T16:54:17;4.70;99.90
40758;DHT22;26462;47.384;19.218;2022-12-10T16:56:46;4.80;99.90
40758;DHT22;26462;47.384;19.218;2022-12-10T16:59:15;4.80;99.90
40758;DHT22;26462;47.384;19.218;2022-12-10T17:01:45;4.80;99.90
40758;DHT22;26462;47.384;19.218;2022-12-10T17:04:13;4.80;99.90
40758;DHT22;26462;47.384;19.218;2022-12-10T17:06:41;4.80;99.90
40758;DHT22;26462;47.384;19.218;2022-12-10T17:09:09;6.40;99.90
40758;DHT22;26462;47.384;19.218;2022-12-10T17:11:41;4.80;99.90
40758;DHT22;26462;47.384;19.218;2022-12-10T17:24:19;4.90;99.90
40758;DHT22;26462;47.384;19.218;2022-12-10T17:36:41;4.90;99.90
40758;DHT22;26462;47.384;19.218;2022-12-10T18:29:55;5.00;99.90
40758;DHT22;26462;47.384;19.218;2022-12-10T18:35:48;5.00;99.90
40758;DHT22;26462;47.384;19.218;2022-12-10T18:38:22;5.10;99.90
40758;DHT22;26462;47.384;19.218;2022-12-10T18:47:24;5.10;99.90
40758;DHT22;26462;47.384;19.218;2022-12-10T18:49:52;5.10;99.90
40758;DHT22;26462;47.384;19.218;2022-12-10T18:52:33;5.10;99.90
40758;DHT22;26462;47.384;19.218;2022-12-10T18:58:36;5.10;99.90
40758;DHT22;26462;47.384;19.218;2022-12-10T19:01:04;5.10;99.90
40758;DHT22;26462;47.384;19.218;2022-12-10T19:03:35;5.10;99.90
40758;DHT22;26462;47.384;19.218;2022-12-10T19:06:03;5.10;99.90
40758;DHT22;26462;47.384;19.218;2022-12-10T19:13:22;5.10;99.90
40758;DHT22;26462;47.384;19.218;2022-12-10T19:16:27;5.10;99.90
40758;DHT22;26462;47.384;19.218;2022-12-10T19:19:00;5.10;99.90
40758;DHT22;26462;47.384;19.218;2022-12-10T19:21:38;5.10;99.90
40758;DHT22;26462;47.384;19.218;2022-12-10T19:24:07;5.10;99.90
40758;DHT22;26462;47.384;19.218;2022-12-10T19:26:38;5.10;99.90
40758;DHT22;26462;47.384;19.218;2022-12-10T19:29:17;5.10;99.90
40758;DHT22;26462;47.384;19.218;2022-12-10T19:34:59;5.20;99.90
40758;DHT22;26462;47.384;19.218;2022-12-10T19:37:28;5.20;99.90
40758;DHT22;26462;47.384;19.218;2022-12-10T19:39:58;5.20;99.90
40758;DHT22;26462;47.384;19.218;2022-12-10T19:42:48;5.20;99.90
40758;DHT22;26462;47.384;19.218;2022-12-10T19:45:19;5.20;99.90
40758;DHT22;26462;47.384;19.218;2022-12-10T19:47:52;5.20;99.90
40758;DHT22;26462;47.384;19.218;2022-12-10T19:50:32;5.20;99.90
40758;DHT22;26462;47.384;19.218;2022-12-10T19:53:08;5.20;99.90
40758;DHT22;26462;47.384;19.218;2022-12-10T19:55:37;5.20;99.90
40758;DHT22;26462;47.384;19.218;2022-12-10T19:58:10;5.30;99.90
40758;DHT22;26462;47.384;19.218;2022-12-10T20:00:41;5.30;99.90
40758;DHT22;26462;47.384;19.218;2022-12-10T20:03:16;5.30;99.90
40758;DHT22;26462;47.384;19.218;2022-12-10T20:05:47;5.30;99.90
40758;DHT22;26462;47.384;19.218;2022-12-10T20:08:17;5.30;99.90
40758;DHT22;26462;47.384;19.218;2022-12-10T20:10:51;5.30;99.90
40758;DHT22;26462;47.384;19.218;2022-12-10T20:13:20;5.30;99.90
40758;DHT22;26462;47.384;19.218;2022-12-10T20:15:50;5.30;99.90
40758;DHT22;26462;47.384;19.218;2022-12-10T20:18:19;5.30;99.90
40758;DHT22;26462;47.384;19.218;2022-12-10T20:20:50;5.30;99.90
40758;DHT22;26462;47.384;19.218;2022-12-10T20:23:24;5.10;99.90
40758;DHT22;26462;47.384;19.218;2022-12-10T20:25:57;5.30;99.90
40758;DHT22;26462;47.384;19.218;2022-12-10T20:28:29;5.30;99.90
40758;DHT22;26462;47.384;19.218;2022-12-10T20:30:59;5.30;99.90
40758;DHT22;26462;47.384;19.218;2022-12-10T20:33:34;5.30;99.90
40758;DHT22;26462;47.384;19.218;2022-12-10T20:36:20;5.30;99.90
40758;DHT22;26462;47.384;19.218;2022-12-10T20:38:49;5.30;99.90
40758;DHT22;26462;47.384;19.218;2022-12-10T20:41:31;5.30;99.90
40758;DHT22;26462;47.384;19.218;2022-12-10T20:44:27;5.30;99.90
40758;DHT22;26462;47.384;19.218;2022-12-10T20:46:56;5.30;99.90
40758;DHT22;26462;47.384;19.218;2022-12-10T20:49:26;5.30;99.90
40758;DHT22;26462;47.384;19.218;2022-12-10T20:51:54;5.30;99.90
40758;DHT22;26462;47.384;19.218;2022-12-10T20:54:26;5.30;99.90
40758;DHT22;26462;47.384;19.218;2022-12-10T20:56:59;5.30;99.90
40758;DHT22;26462;47.384;19.218;2022-12-10T20:59:28;5.30;99.90
40758;DHT22;26462;47.384;19.218;2022-12-10T21:02:05;5.30;99.90
40758;DHT22;26462;47.384;19.218;2022-12-10T21:04:35;5.30;99.90
40758;DHT22;26462;47.384;19.218;2022-12-10T21:07:13;5.30;99.90
40758;DHT22;26462;47.384;19.218;2022-12-10T21:09:43;5.30;99.90
40758;DHT22;26462;47.384;19.218;2022-12-10T21:12:12;5.30;99.90
40758;DHT22;26462;47.384;19.218;2022-12-10T21:14:40;5.30;99.90
40758;DHT22;26462;47.384;19.218;2022-12-10T21:17:22;5.30;99.90
40758;DHT22;26462;47.384;19.218;2022-12-10T21:19:54;5.30;99.90
40758;DHT22;26462;47.384;19.218;2022-12-10T21:22:23;5.30;99.90
40758;DHT22;26462;47.384;19.218;2022-12-10T21:24:52;5.30;99.90
40758;DHT22;26462;47.384;19.218;2022-12-10T21:27:19;5.30;99.90
40758;DHT22;26462;47.384;19.218;2022-12-10T21:29:46;5.30;99.90
40758;DHT22;26462;47.384;19.218;2022-12-10T21:32:16;5.30;99.90
40758;DHT22;26462;47.384;19.218;2022-12-10T21:34:49;5.30;99.90
40758;DHT22;26462;47.384;19.218;2022-12-10T21:37:17;5.30;99.90
40758;DHT22;26462;47.384;19.218;2022-12-10T21:39:46;5.30;99.90
40758;DHT22;26462;47.384;19.218;2022-12-10T21:42:14;5.30;99.90
40758;DHT22;26462;47.384;19.218;2022-12-10T21:45:01;5.30;99.90
40758;DHT22;26462;47.384;19.218;2022-12-10T21:47:30;5.30;99.90
40758;DHT22;26462;47.384;19.218;2022-12-10T21:49:58;5.30;99.90
40758;DHT22;26462;47.384;19.218;2022-12-10T21:52:27;5.30;99.90
40758;DHT22;26462;47.384;19.218;2022-12-10T21:55:04;5.30;99.90
40758;DHT22;26462;47.384;19.218;2022-12-10T21:57:36;5.30;99.90
40758;DHT22;26462;47.384;19.218;2022-12-10T22:00:04;5.30;99.90
40758;DHT22;26462;47.384;19.218;2022-12-10T22:02:52;5.30;99.90
40758;DHT22;26462;47.384;19.218;2022-12-10T22:05:20;5.30;99.90
40758;DHT22;26462;47.384;19.218;2022-12-10T22:07:47;5.30;99.90
40758;DHT22;26462;47.384;19.218;2022-12-10T22:10:17;5.30;99.90
40758;DHT22;26462;47.384;19.218;2022-12-10T22:12:45;5.30;99.90
40758;DHT22;26462;47.384;19.218;2022-12-10T22:15:13;5.30;99.90
40758;DHT22;26462;47.384;19.218;2022-12-10T22:17:42;5.40;99.90
40758;DHT22;26462;47.384;19.218;2022-12-10T22:20:11;5.30;99.90
40758;DHT22;26462;47.384;19.218;2022-12-10T22:22:44;5.30;99.90
40758;DHT22;26462;47.384;19.218;2022-12-10T22:25:12;5.30;99.90
40758;DHT22;26462;47.384;19.218;2022-12-10T22:27:47;5.30;99.90
40758;DHT22;26462;47.384;19.218;2022-12-10T22:30:14;5.30;99.90
40758;DHT22;26462;47.384;19.218;2022-12-10T22:32:43;5.30;99.90
40758;DHT22;26462;47.384;19.218;2022-12-10T22:35:12;5.30;99.90
40758;DHT22;26462;47.384;19.218;2022-12-10T22:37:42;5.30;99.90
40758;DHT22;26462;47.384;19.218;2022-12-10T22:40:11;5.30;99.90
40758;DHT22;26462;47.384;19.218;2022-12-10T22:42:39;5.30;99.90
40758;DHT22;26462;47.384;19.218;2022-12-10T22:45:08;5.30;99.90
40758;DHT22;26462;47.384;19.218;2022-12-10T22:47:36;5.20;99.90
40758;DHT22;26462;47.384;19.218;2022-12-10T22:50:04;5.20;99.90
40758;DHT22;26462;47.384;19.218;2022-12-10T22:52:32;5.20;99.90
40758;DHT22;26462;47.384;19.218;2022-12-10T22:55:00;5.20;99.90
40758;DHT22;26462;47.384;19.218;2022-12-10T22:57:31;5.20;99.90
40758;DHT22;26462;47.384;19.218;2022-12-10T22:59:59;5.20;99.90
40758;DHT22;26462;47.384;19.218;2022-12-10T23:02:26;5.20;99.90
40758;DHT22;26462;47.384;19.218;2022-12-10T23:04:54;5.10;99.90
40758;DHT22;26462;47.384;19.218;2022-12-10T23:07:21;5.10;99.90
40758;DHT22;26462;47.384;19.218;2022-12-10T23:09:48;5.10;99.90
40758;DHT22;26462;47.384;19.218;2022-12-10T23:12:15;5.10;99.90
40758;DHT22;26462;47.384;19.218;2022-12-10T23:15:01;5.00;99.90
40758;DHT22;26462;47.384;19.218;2022-12-10T23:17:28;5.00;99.90
40758;DHT22;26462;47.384;19.218;2022-12-10T23:19:55;5.00;99.90
40758;DHT22;26462;47.384;19.218;2022-12-10T23:22:22;5.00;99.90
40758;DHT22;26462;47.384;19.218;2022-12-10T23:24:49;5.00;99.90
40758;DHT22;26462;47.384;19.218;2022-12-10T23:27:17;4.90;99.90
40758;DHT22;26462;47.384;19.218;2022-12-10T23:29:44;5.00;99.90
40758;DHT22;26462;47.384;19.218;2022-12-10T23:32:12;5.00;99.90
40758;DHT22;26462;47.384;19.218;2022-12-10T23:34:39;4.90;99.90
40758;DHT22;26462;47.384;19.218;2022-12-10T23:37:07;5.00;99.90
40758;DHT22;26462;47.384;19.218;2022-12-10T23:39:34;4.90;99.90
40758;DHT22;26462;47.384;19.218;2022-12-10T23:42:01;5.00;99.90
40758;DHT22;26462;47.384;19.218;2022-12-10T23:44:29;4.90;99.90
40758;DHT22;26462;47.384;19.218;2022-12-10T23:46:56;4.90;99.90
40758;DHT22;26462;47.384;19.218;2022-12-10T23:49:24;4.90;99.90
40758;DHT22;26462;47.384;19.218;2022-12-10T23:51:51;4.30;99.90
40758;DHT22;26462;47.384;19.218;2022-12-10T23:54:18;4.90;99.90
40758;DHT22;26462;47.384;19.218;2022-12-10T23:56:45;4.90;99.90
40758;DHT22;26462;47.384;19.218;2022-12-10T23:59:13;4.80;99.90
